createdAt,value
2022-11-05T00:00:45.977Z,9.30
2022-11-05T00:06:09.826Z,7.75
2022-11-05T00:11:18.084Z,7.25
2022-11-05T00:16:40.421Z,5.40
2022-11-05T00:22:02.804Z,5.40
2022-11-05T00:27:09.103Z,5.53
2022-11-05T00:32:12.406Z,5.03
2022-11-05T00:37:15.526Z,5.95
2022-11-05T00:42:39.516Z,6.70
2022-11-05T00:48:01.428Z,6.15
2022-11-05T00:53:04.643Z,5.47
2022-11-05T00:58:11.725Z,6.20
2022-11-05T01:03:16.119Z,6.35
2022-11-05T01:08:21.628Z,6.37
2022-11-05T01:18:29.953Z,5.35
2022-11-05T01:23:33.066Z,4.97
2022-11-05T01:28:37.539Z,5.80
2022-11-05T01:33:40.976Z,6.22
2022-11-05T01:38:44.360Z,6.28
2022-11-05T01:43:51.515Z,6.00
2022-11-05T01:49:03.175Z,6.15
2022-11-05T01:54:09.781Z,6.30
2022-11-05T01:59:17.247Z,6.15
2022-11-05T02:04:27.049Z,6.35
2022-11-05T02:09:34.705Z,7.20
2022-11-05T02:14:39.295Z,7.75
2022-11-05T02:20:03.937Z,8.53
2022-11-05T02:25:35.475Z,7.30
2022-11-05T02:30:46.567Z,7.78
2022-11-05T02:36:06.224Z,10.18
2022-11-05T02:41:18.565Z,8.00
2022-11-05T02:46:33.254Z,7.88
2022-11-05T02:51:42.306Z,9.02
2022-11-05T02:56:48.219Z,6.97
2022-11-05T03:01:53.922Z,7.07
2022-11-05T03:12:21.465Z,7.25
2022-11-05T03:17:33.584Z,6.97
2022-11-05T03:22:41.492Z,6.38
2022-11-05T03:27:48.460Z,7.53
2022-11-05T03:33:01.914Z,6.90
2022-11-05T03:38:10.855Z,7.00
2022-11-05T03:43:14.604Z,7.45
2022-11-05T03:48:23.946Z,7.47
2022-11-05T03:53:30.158Z,6.00
2022-11-05T03:58:34.244Z,6.25
2022-11-05T04:03:38.870Z,7.32
2022-11-05T04:09:00.480Z,7.03
2022-11-05T04:14:03.656Z,7.45
2022-11-05T04:19:08.122Z,5.90
2022-11-05T04:24:12.836Z,6.93
2022-11-05T04:29:34.972Z,7.97
2022-11-05T04:34:39.365Z,7.75
2022-11-05T04:39:42.543Z,7.57
2022-11-05T04:44:45.858Z,6.70
2022-11-05T04:49:50.489Z,6.68
2022-11-05T04:54:53.561Z,5.90
2022-11-05T04:59:57.281Z,6.43
2022-11-05T05:05:01.792Z,5.75
2022-11-05T05:10:08.214Z,6.45
2022-11-05T05:15:11.299Z,5.32
2022-11-05T05:20:34.659Z,6.15
2022-11-05T05:25:37.735Z,6.78
2022-11-05T05:30:40.945Z,6.40
2022-11-05T05:35:45.447Z,6.07
2022-11-05T05:40:49.503Z,6.13
2022-11-05T05:45:52.581Z,7.32
2022-11-05T05:51:00.299Z,7.85
2022-11-05T05:56:04.184Z,6.32
2022-11-05T06:01:12.915Z,6.65
2022-11-05T06:06:21.056Z,6.38
2022-11-05T06:16:28.597Z,7.47
2022-11-05T06:21:33.239Z,8.43
2022-11-05T06:26:42.637Z,8.23
2022-11-05T06:31:45.710Z,7.78
2022-11-05T06:36:50.281Z,7.32
2022-11-05T06:47:16.569Z,6.40
2022-11-05T06:52:21.341Z,7.13
2022-11-05T06:57:24.483Z,8.05
2022-11-05T07:02:27.642Z,8.52
2022-11-05T07:07:32.219Z,8.07
2022-11-05T07:12:35.436Z,8.37
2022-11-05T07:17:39.147Z,7.40
2022-11-05T07:22:43.609Z,7.88
2022-11-05T07:27:46.733Z,7.67
2022-11-05T07:32:49.854Z,7.57
2022-11-05T07:37:55.470Z,8.00
2022-11-05T07:43:00.967Z,8.02
2022-11-05T07:48:05.390Z,7.32
2022-11-05T07:53:12.313Z,7.82
2022-11-05T07:58:15.714Z,6.38
2022-11-05T08:03:19.581Z,6.80
2022-11-05T08:08:25.616Z,6.45
2022-11-05T08:13:28.822Z,6.13
2022-11-05T08:18:33.054Z,7.38
2022-11-05T08:23:39.002Z,7.13
2022-11-05T08:28:42.026Z,7.90
2022-11-05T08:33:45.258Z,6.35
2022-11-05T08:38:50.340Z,4.97
2022-11-05T08:43:55.026Z,4.97
2022-11-05T08:48:58.173Z,4.57
2022-11-05T08:54:02.697Z,3.75
2022-11-05T08:59:06.350Z,3.97
2022-11-05T09:04:09.984Z,3.30
2022-11-05T09:09:14.589Z,3.30
2022-11-05T09:14:17.682Z,2.47
2022-11-05T09:19:20.930Z,3.28
2022-11-05T09:24:25.328Z,3.97
2022-11-05T09:29:28.423Z,2.30
2022-11-05T09:34:31.649Z,2.40
2022-11-05T09:39:36.077Z,2.13
2022-11-05T09:44:43.673Z,2.37
2022-11-05T09:49:51.181Z,7.63
2022-11-05T09:54:57.044Z,2.30
2022-11-05T10:00:04.736Z,2.42
2022-11-05T10:05:12.635Z,1.95
2022-11-05T10:10:36.494Z,2.20
2022-11-05T10:15:50.794Z,1.90
2022-11-05T10:20:53.984Z,1.88
2022-11-05T10:26:01.648Z,1.90
2022-11-05T10:31:07.857Z,1.55
2022-11-05T10:36:15.278Z,1.52
2022-11-05T10:41:32.625Z,1.70
2022-11-05T10:46:41.197Z,1.42
2022-11-05T10:51:44.468Z,1.58
2022-11-05T10:56:49.265Z,1.67
2022-11-05T11:02:03.137Z,1.38
2022-11-05T11:07:19.383Z,1.65
2022-11-05T11:12:27.543Z,2.03
2022-11-05T11:17:32.602Z,2.05
2022-11-05T11:22:35.839Z,1.50
2022-11-05T11:27:40.277Z,1.20
2022-11-05T11:32:43.454Z,1.47
2022-11-05T11:37:47.584Z,1.50
2022-11-05T11:42:55.741Z,1.27
2022-11-05T11:48:02.172Z,1.48
2022-11-05T11:53:29.878Z,1.17
2022-11-05T11:58:40.849Z,1.23
2022-11-05T12:03:49.516Z,0.95
2022-11-05T12:09:06.435Z,0.85
2022-11-05T12:14:24.052Z,1.00
2022-11-05T12:19:48.632Z,0.98
2022-11-05T12:25:04.371Z,1.20
2022-11-05T12:30:13.961Z,1.38
2022-11-05T12:35:31.880Z,1.08
2022-11-05T12:40:51.379Z,1.20
2022-11-05T12:46:03.598Z,1.50
2022-11-05T12:51:19.484Z,1.17
2022-11-05T12:56:30.816Z,1.65
2022-11-05T13:01:39.932Z,1.33
2022-11-05T13:06:47.276Z,1.27
2022-11-05T13:11:54.515Z,1.40
2022-11-05T13:17:01.194Z,1.38
2022-11-05T13:22:24.020Z,1.42
2022-11-05T13:27:42.834Z,1.15
2022-11-05T13:32:51.853Z,1.50
2022-11-05T13:38:17.660Z,1.33
2022-11-05T13:44:05.303Z,2.15
2022-11-05T13:49:36.501Z,1.42
2022-11-05T13:55:01.676Z,1.42
2022-11-05T14:00:11.705Z,1.92
2022-11-05T14:05:25.165Z,1.65
2022-11-05T14:10:35.358Z,2.20
2022-11-05T14:15:38.520Z,1.85
2022-11-05T14:21:00.001Z,1.83
2022-11-05T14:26:22.595Z,1.42
2022-11-05T14:32:07.068Z,1.52
2022-11-05T14:37:37.112Z,1.80
2022-11-05T14:42:40.333Z,1.10
2022-11-05T14:47:50.853Z,1.55
2022-11-05T14:52:57.240Z,1.70
2022-11-05T14:58:06.555Z,1.73
2022-11-05T15:03:51.692Z,1.60
2022-11-05T15:09:29.577Z,2.63
2022-11-05T15:14:36.251Z,1.98
2022-11-05T15:19:41.711Z,1.90
2022-11-05T15:24:47.276Z,2.47
2022-11-05T15:29:50.960Z,1.75
2022-11-05T15:34:55.533Z,1.80
2022-11-05T15:39:59.976Z,2.25
2022-11-05T15:45:03.241Z,1.60
2022-11-05T15:50:14.665Z,1.92
2022-11-05T15:55:23.763Z,1.40
2022-11-05T16:00:29.187Z,1.85
2022-11-05T16:05:35.995Z,2.00
2022-11-05T16:10:47.498Z,2.13
2022-11-05T16:15:55.460Z,2.35
2022-11-05T16:21:03.668Z,1.80
2022-11-05T16:26:55.780Z,2.17
2022-11-05T16:31:53.931Z,3.08
2022-11-05T16:36:58.622Z,4.18
2022-11-05T16:42:34.613Z,6.57
2022-11-05T16:47:37.862Z,7.30
2022-11-05T16:52:40.979Z,7.05
2022-11-05T16:57:48.937Z,10.35
2022-11-05T17:02:52.836Z,11.07
2022-11-05T17:07:56.995Z,10.07
2022-11-05T17:13:02.172Z,10.20
2022-11-05T17:23:11.076Z,6.00
2022-11-05T17:28:16.860Z,4.57
2022-11-05T17:33:22.782Z,4.95
2022-11-05T17:38:26.788Z,4.65
2022-11-05T17:43:33.704Z,4.68
2022-11-05T17:48:38.043Z,4.55
2022-11-05T17:53:41.727Z,4.23
2022-11-05T17:58:46.672Z,4.22
2022-11-05T18:03:49.995Z,4.50
2022-11-05T18:08:53.612Z,8.07
2022-11-05T18:13:58.915Z,7.72
2022-11-05T18:19:02.391Z,7.30
2022-11-05T18:24:06.339Z,6.20
2022-11-05T18:29:10.869Z,6.22
2022-11-05T18:34:14.283Z,6.93
2022-11-05T18:39:17.582Z,7.75
2022-11-05T18:44:24.916Z,6.97
2022-11-05T18:49:28.373Z,6.45
2022-11-05T18:54:31.713Z,5.25
2022-11-05T18:59:39.425Z,5.90
2022-11-05T19:05:06.602Z,8.20
2022-11-05T19:10:09.626Z,5.75
2022-11-05T19:15:15.170Z,5.55
2022-11-05T19:20:19.463Z,5.75
2022-11-05T19:25:22.770Z,6.85
2022-11-05T19:30:27.229Z,5.28
2022-11-05T19:35:30.503Z,6.27
2022-11-05T19:40:33.581Z,5.90
2022-11-05T19:45:44.697Z,6.25
2022-11-05T19:50:48.655Z,7.20
2022-11-05T19:55:51.951Z,6.80
2022-11-05T20:00:57.737Z,7.07
2022-11-05T20:06:02.393Z,8.20
2022-11-05T20:11:06.236Z,8.25
2022-11-05T20:16:21.757Z,9.10
2022-11-05T20:21:24.953Z,8.95
2022-11-05T20:26:28.607Z,9.13
2022-11-05T20:31:33.265Z,8.63
2022-11-05T20:36:36.492Z,9.30
2022-11-05T20:41:39.648Z,9.65
2022-11-05T20:46:44.363Z,9.95
2022-11-05T20:51:47.551Z,8.83
2022-11-05T20:56:50.890Z,8.40
2022-11-05T21:01:55.415Z,8.40
2022-11-05T21:06:58.761Z,7.32
2022-11-05T21:12:10.604Z,7.78
2022-11-05T21:17:15.116Z,7.15
2022-11-05T21:22:18.453Z,10.33
2022-11-05T21:27:21.596Z,9.35
2022-11-05T21:32:26.076Z,6.85
2022-11-05T21:37:29.234Z,6.07
2022-11-05T21:42:32.407Z,7.35
2022-11-05T21:47:36.853Z,5.53
2022-11-05T21:52:58.436Z,7.03
2022-11-05T21:58:25.299Z,7.00
2022-11-05T22:03:29.854Z,8.75
2022-11-05T22:08:33.009Z,7.00
2022-11-05T22:13:36.177Z,7.03
2022-11-05T22:18:40.918Z,6.03
2022-11-05T22:23:44.342Z,7.07
2022-11-05T22:28:47.670Z,6.68
2022-11-05T22:33:52.356Z,5.82
2022-11-05T22:38:55.451Z,10.77
2022-11-05T22:43:58.578Z,6.50
2022-11-05T22:49:03.428Z,6.85
2022-11-05T22:54:07.439Z,6.53
2022-11-05T22:59:12.965Z,5.43
2022-11-05T23:04:17.683Z,5.45
2022-11-05T23:09:42.795Z,5.22
2022-11-05T23:14:46.476Z,4.93
2022-11-05T23:20:20.107Z,4.63
2022-11-05T23:25:23.865Z,4.05
2022-11-05T23:30:27.753Z,4.65
2022-11-05T23:35:53.419Z,4.70
2022-11-05T23:41:19.199Z,5.43
2022-11-05T23:46:40.958Z,4.53
2022-11-05T23:51:45.857Z,4.10
2022-11-05T23:56:49.105Z,4.57
